createdAt,value
2023-01-06T00:00:36.043Z,69.96
2023-01-06T00:03:03.152Z,70.12
2023-01-06T00:05:29.728Z,70.01
2023-01-06T00:07:56.475Z,70.69
2023-01-06T00:10:23.529Z,71.10
2023-01-06T00:12:50.717Z,71.50
2023-01-06T00:15:18.559Z,70.60
2023-01-06T00:17:45.669Z,71.41
2023-01-06T00:20:13.952Z,71.14
2023-01-06T00:22:41.249Z,70.45
2023-01-06T00:25:12.688Z,71.15
2023-01-06T00:27:39.966Z,71.31
2023-01-06T00:30:07.801Z,69.90
2023-01-06T00:32:34.398Z,71.98
2023-01-06T00:35:01.135Z,71.61
2023-01-06T00:37:27.575Z,72.42
2023-01-06T00:39:53.926Z,71.73
2023-01-06T00:42:22.360Z,70.22
2023-01-06T00:44:48.893Z,70.26
2023-01-06T00:47:15.385Z,70.68
2023-01-06T00:49:42.183Z,70.65
2023-01-06T00:52:09.150Z,70.00
2023-01-06T00:54:36.678Z,69.31
2023-01-06T00:57:05.625Z,69.56
2023-01-06T00:59:32.104Z,69.05
2023-01-06T01:01:59.286Z,69.35
2023-01-06T01:04:26.655Z,69.81
2023-01-06T01:06:54.109Z,69.76
2023-01-06T01:09:29.474Z,69.53
2023-01-06T01:12:14.658Z,70.26
2023-01-06T01:14:50.065Z,70.66
2023-01-06T01:17:28.276Z,70.32
2023-01-06T01:19:56.103Z,69.94
2023-01-06T01:22:24.329Z,70.64
2023-01-06T01:24:51.130Z,70.05
2023-01-06T01:27:18.229Z,69.65
2023-01-06T01:29:44.787Z,69.09
2023-01-06T01:32:11.278Z,70.12
2023-01-06T01:34:38.228Z,70.14
2023-01-06T01:37:04.900Z,69.69
2023-01-06T01:39:31.640Z,70.26
2023-01-06T01:41:59.254Z,70.10
2023-01-06T01:45:02.970Z,70.02
2023-01-06T01:47:44.907Z,71.18
2023-01-06T01:50:34.357Z,69.55
2023-01-06T01:53:15.157Z,69.94
2023-01-06T01:55:41.797Z,69.41
2023-01-06T01:58:21.810Z,69.65
2023-01-06T02:00:48.265Z,70.03
2023-01-06T02:03:15.689Z,70.27
2023-01-06T02:05:46.612Z,70.98
2023-01-06T02:08:48.302Z,69.84
2023-01-06T02:11:14.842Z,70.87
2023-01-06T02:13:44.516Z,71.16
2023-01-06T02:16:16.817Z,70.14
2023-01-06T02:18:59.885Z,71.09
2023-01-06T02:21:26.288Z,70.28
2023-01-06T02:24:31.437Z,69.92
2023-01-06T02:27:06.949Z,69.13
2023-01-06T02:29:39.319Z,69.73
2023-01-06T02:32:30.693Z,70.34
2023-01-06T02:35:15.890Z,69.54
2023-01-06T02:37:48.255Z,69.64
2023-01-06T02:40:30.278Z,70.82
2023-01-06T02:43:35.038Z,69.25
2023-01-06T02:46:07.226Z,69.53
2023-01-06T02:48:39.548Z,70.09
2023-01-06T02:51:15.997Z,69.83
2023-01-06T02:54:05.962Z,70.05
2023-01-06T02:56:38.300Z,70.28
2023-01-06T02:59:14.902Z,70.84
2023-01-06T03:01:44.463Z,70.24
2023-01-06T03:04:17.196Z,69.08
2023-01-06T03:06:47.051Z,70.72
2023-01-06T03:09:27.189Z,69.75
2023-01-06T03:11:53.721Z,69.58
2023-01-06T03:14:35.248Z,70.05
2023-01-06T03:17:02.578Z,70.08
2023-01-06T03:19:29.119Z,69.77
2023-01-06T03:21:56.486Z,69.92
2023-01-06T03:24:23.501Z,69.42
2023-01-06T03:26:52.774Z,70.55
2023-01-06T03:29:20.282Z,70.65
2023-01-06T03:31:58.465Z,69.25
2023-01-06T03:34:30.586Z,70.29
2023-01-06T03:37:15.856Z,69.85
2023-01-06T03:39:52.975Z,70.83
2023-01-06T03:42:41.239Z,70.25
2023-01-06T03:45:10.255Z,70.38
2023-01-06T03:47:57.976Z,70.22
2023-01-06T03:50:32.860Z,69.67
2023-01-06T03:53:14.246Z,69.79
2023-01-06T03:55:45.983Z,70.45
2023-01-06T03:58:14.098Z,71.04
2023-01-06T04:00:41.672Z,70.91
2023-01-06T04:03:15.923Z,69.55
2023-01-06T04:05:42.401Z,69.42
2023-01-06T04:08:08.831Z,69.90
2023-01-06T04:10:35.359Z,70.40
2023-01-06T04:13:01.808Z,70.70
2023-01-06T04:15:32.521Z,70.37
2023-01-06T04:17:59.499Z,70.56
2023-01-06T04:20:28.644Z,71.19
2023-01-06T04:22:57.007Z,71.72
2023-01-06T04:25:24.505Z,72.00
2023-01-06T04:27:51.545Z,70.82
2023-01-06T04:30:18.323Z,71.06
2023-01-06T04:32:44.899Z,71.34
2023-01-06T04:35:11.712Z,71.10
2023-01-06T04:37:38.448Z,71.39
2023-01-06T04:40:07.534Z,70.91
2023-01-06T04:42:54.438Z,71.39
2023-01-06T04:45:21.362Z,73.57
2023-01-06T04:47:47.840Z,72.25
2023-01-06T04:50:14.667Z,71.72
2023-01-06T04:52:41.097Z,72.56
2023-01-06T04:55:08.756Z,73.22
2023-01-06T04:57:35.155Z,72.45
2023-01-06T05:00:01.618Z,72.76
2023-01-06T05:02:28.065Z,71.70
2023-01-06T05:04:54.527Z,71.86
2023-01-06T05:07:21.045Z,72.91
2023-01-06T05:09:47.528Z,72.48
2023-01-06T05:12:13.920Z,71.99
2023-01-06T05:14:40.355Z,73.95
2023-01-06T05:17:06.750Z,72.55
2023-01-06T05:19:35.274Z,73.51
2023-01-06T05:22:01.729Z,73.88
2023-01-06T05:24:28.165Z,73.80
2023-01-06T05:26:55.029Z,73.83
2023-01-06T05:29:21.546Z,73.71
2023-01-06T05:31:48.140Z,74.53
2023-01-06T05:34:14.640Z,73.94
2023-01-06T05:36:41.018Z,74.04
2023-01-06T05:39:07.389Z,74.33
2023-01-06T05:41:33.788Z,74.02
2023-01-06T05:44:00.190Z,74.80
2023-01-06T05:46:26.570Z,74.50
2023-01-06T05:48:52.986Z,74.59
2023-01-06T05:51:19.447Z,75.03
2023-01-06T05:53:47.973Z,75.15
2023-01-06T05:56:17.774Z,75.46
2023-01-06T05:58:45.924Z,77.77
2023-01-06T06:01:24.874Z,78.74
2023-01-06T06:03:53.546Z,79.00
2023-01-06T06:06:21.962Z,79.33
2023-01-06T06:08:48.690Z,80.50
2023-01-06T06:11:17.408Z,80.27
2023-01-06T06:13:48.336Z,81.90
2023-01-06T06:16:16.454Z,83.76
2023-01-06T06:18:43.958Z,82.93
2023-01-06T06:21:12.560Z,83.12
2023-01-06T06:23:39.828Z,86.46
2023-01-06T06:26:06.971Z,83.66
2023-01-06T06:28:34.512Z,83.46
2023-01-06T06:31:09.136Z,85.40
2023-01-06T06:33:35.773Z,85.72
2023-01-06T06:36:03.817Z,84.54
2023-01-06T06:38:30.384Z,85.96
2023-01-06T06:40:56.962Z,87.72
2023-01-06T06:43:23.775Z,87.39
2023-01-06T06:45:50.287Z,86.06
2023-01-06T06:48:17.231Z,88.56
2023-01-06T06:50:43.717Z,88.14
2023-01-06T06:53:13.111Z,87.55
2023-01-06T06:55:39.624Z,86.88
2023-01-06T06:58:06.004Z,87.81
2023-01-06T07:00:32.656Z,87.26
2023-01-06T07:02:59.178Z,88.07
2023-01-06T07:05:25.752Z,88.35
2023-01-06T07:07:52.420Z,89.40
2023-01-06T07:10:19.142Z,89.16
2023-01-06T07:12:45.565Z,89.92
2023-01-06T07:15:12.184Z,89.84
2023-01-06T07:17:39.523Z,89.65
2023-01-06T07:20:06.371Z,91.67
2023-01-06T07:22:32.819Z,91.49
2023-01-06T07:24:59.261Z,91.72
2023-01-06T07:27:25.711Z,91.12
2023-01-06T07:29:52.159Z,92.93
2023-01-06T07:32:18.590Z,92.38
2023-01-06T07:34:45.012Z,92.09
2023-01-06T07:37:11.431Z,92.03
2023-01-06T07:39:37.912Z,92.44
2023-01-06T07:42:04.379Z,92.32
2023-01-06T07:44:30.814Z,91.74
2023-01-06T07:46:57.284Z,91.56
2023-01-06T07:49:23.747Z,91.98
2023-01-06T07:51:50.165Z,92.05
2023-01-06T07:54:16.690Z,91.76
2023-01-06T07:56:44.146Z,91.75
2023-01-06T07:59:10.888Z,92.68
2023-01-06T08:01:37.493Z,92.54
2023-01-06T08:04:04.186Z,92.87
2023-01-06T08:06:30.679Z,93.12
2023-01-06T08:08:57.139Z,93.38
2023-01-06T08:11:23.657Z,93.98
2023-01-06T08:13:50.135Z,94.42
2023-01-06T08:16:16.696Z,95.27
2023-01-06T08:18:43.312Z,95.94
2023-01-06T08:21:11.289Z,95.81
2023-01-06T08:23:38.438Z,95.67
2023-01-06T08:26:16.436Z,95.83
2023-01-06T08:28:44.485Z,96.23
2023-01-06T08:31:12.771Z,97.21
2023-01-06T08:33:40.020Z,96.92
2023-01-06T08:36:08.503Z,97.60
2023-01-06T08:38:36.700Z,97.10
2023-01-06T08:41:03.712Z,96.02
2023-01-06T08:43:31.658Z,95.77
2023-01-06T08:46:03.650Z,96.89
2023-01-06T08:48:30.587Z,96.37
2023-01-06T08:51:11.928Z,96.81
2023-01-06T08:53:39.061Z,95.09
2023-01-06T08:56:14.459Z,96.24
2023-01-06T08:58:41.395Z,95.72
2023-01-06T09:01:15.443Z,95.91
2023-01-06T09:03:41.846Z,96.05
2023-01-06T09:06:08.258Z,96.28
2023-01-06T09:08:34.694Z,96.42
2023-01-06T09:11:08.988Z,96.80
2023-01-06T09:13:36.053Z,96.84
2023-01-06T09:16:09.506Z,96.23
2023-01-06T09:18:36.557Z,96.61
2023-01-06T09:21:04.767Z,96.86
2023-01-06T09:23:32.162Z,97.18
2023-01-06T09:25:58.862Z,96.63
2023-01-06T09:28:26.044Z,96.37
2023-01-06T09:30:52.576Z,95.72
2023-01-06T09:33:19.015Z,95.75
2023-01-06T09:35:46.457Z,95.74
2023-01-06T09:38:13.769Z,95.70
2023-01-06T09:41:05.187Z,95.94
2023-01-06T09:43:56.235Z,96.63
2023-01-06T09:46:28.159Z,96.09
2023-01-06T09:49:26.245Z,96.23
2023-01-06T09:51:57.049Z,95.93
2023-01-06T09:54:33.353Z,95.78
2023-01-06T09:57:06.837Z,96.25
2023-01-06T09:59:44.713Z,96.39
2023-01-06T10:02:22.921Z,96.65
2023-01-06T10:04:49.421Z,96.25
2023-01-06T10:07:57.727Z,96.67
2023-01-06T10:10:45.713Z,96.80
2023-01-06T10:14:06.479Z,95.83
2023-01-06T10:17:04.973Z,95.45
2023-01-06T10:19:55.495Z,96.65
2023-01-06T10:22:46.821Z,96.05
2023-01-06T10:25:33.068Z,95.89
2023-01-06T10:28:29.988Z,96.34
2023-01-06T10:31:01.532Z,95.92
2023-01-06T10:33:32.115Z,96.69
2023-01-06T10:35:59.777Z,96.79
2023-01-06T10:38:35.409Z,96.29
2023-01-06T10:41:19.518Z,96.84
2023-01-06T10:43:46.195Z,96.58
2023-01-06T10:46:12.859Z,96.21
2023-01-06T10:48:39.878Z,96.09
2023-01-06T10:51:33.785Z,96.79
2023-01-06T10:54:04.539Z,97.03
2023-01-06T10:56:32.719Z,96.90
2023-01-06T10:59:06.368Z,96.13
2023-01-06T11:01:34.773Z,96.63
2023-01-06T11:04:10.287Z,96.91
2023-01-06T11:06:40.419Z,97.10
2023-01-06T11:09:21.573Z,97.13
2023-01-06T11:11:49.733Z,95.96
2023-01-06T11:14:19.220Z,96.29
2023-01-06T11:16:55.086Z,96.89
2023-01-06T11:19:31.652Z,96.84
2023-01-06T11:21:58.298Z,97.08
2023-01-06T11:24:26.398Z,97.72
2023-01-06T11:27:02.120Z,98.11
2023-01-06T11:29:30.465Z,98.39
2023-01-06T11:32:02.440Z,98.79
2023-01-06T11:34:29.571Z,99.55
2023-01-06T11:36:57.348Z,98.98
2023-01-06T11:39:31.480Z,98.85
2023-01-06T11:42:05.232Z,98.80
2023-01-06T11:44:35.466Z,99.15
2023-01-06T11:47:23.059Z,99.15
2023-01-06T11:49:57.340Z,99.21
2023-01-06T11:52:32.898Z,98.18
2023-01-06T11:55:20.360Z,98.74
2023-01-06T11:58:11.859Z,98.78
2023-01-06T12:01:06.797Z,98.78
2023-01-06T12:03:42.375Z,98.61
2023-01-06T12:06:20.938Z,99.00
2023-01-06T12:09:17.679Z,99.59
2023-01-06T12:11:57.819Z,99.16
2023-01-06T12:14:30.469Z,99.05
2023-01-06T12:17:02.921Z,99.32
2023-01-06T12:19:39.407Z,98.78
2023-01-06T12:22:20.103Z,97.88
2023-01-06T12:24:50.610Z,96.86
2023-01-06T12:27:29.985Z,95.44
2023-01-06T12:30:00.355Z,95.73
2023-01-06T12:32:35.047Z,95.65
2023-01-06T12:35:04.384Z,95.03
2023-01-06T12:37:38.085Z,94.90
2023-01-06T12:40:09.949Z,95.14
2023-01-06T12:42:51.702Z,94.36
2023-01-06T12:45:28.779Z,94.57
2023-01-06T12:47:58.361Z,94.41
2023-01-06T12:50:34.186Z,94.58
2023-01-06T12:53:20.800Z,94.95
2023-01-06T12:56:06.573Z,95.41
2023-01-06T12:58:35.832Z,95.26
2023-01-06T13:01:14.789Z,94.98
2023-01-06T13:04:14.094Z,94.63
2023-01-06T13:06:57.604Z,94.43
2023-01-06T13:09:37.527Z,94.52
2023-01-06T13:12:43.814Z,95.29
2023-01-06T13:15:29.029Z,94.75
2023-01-06T13:18:05.991Z,94.77
2023-01-06T13:20:41.533Z,96.45
2023-01-06T13:23:35.507Z,95.99
2023-01-06T13:26:20.349Z,94.84
2023-01-06T13:28:56.046Z,93.93
2023-01-06T13:31:59.718Z,93.85
2023-01-06T13:34:44.641Z,93.86
2023-01-06T13:37:42.172Z,92.20
2023-01-06T13:40:29.614Z,90.20
2023-01-06T13:42:59.726Z,90.81
2023-01-06T13:45:48.537Z,91.55
2023-01-06T13:48:20.155Z,90.56
2023-01-06T13:50:47.135Z,91.22
2023-01-06T13:53:19.318Z,91.62
2023-01-06T13:55:46.219Z,90.70
2023-01-06T13:58:25.588Z,90.33
2023-01-06T14:01:30.085Z,90.36
2023-01-06T14:04:42.610Z,89.99
2023-01-06T14:07:09.653Z,89.36
2023-01-06T14:09:40.278Z,90.15
2023-01-06T14:12:15.891Z,89.38
2023-01-06T14:14:42.423Z,89.09
2023-01-06T14:17:36.635Z,91.08
2023-01-06T14:20:03.936Z,92.83
2023-01-06T14:22:40.610Z,94.29
2023-01-06T14:25:08.856Z,96.70
2023-01-06T14:27:47.372Z,96.66
2023-01-06T14:30:30.689Z,97.44
2023-01-06T14:33:23.643Z,96.36
2023-01-06T14:35:59.019Z,95.11
2023-01-06T14:38:57.671Z,94.61
2023-01-06T14:41:26.843Z,92.94
2023-01-06T14:43:56.797Z,93.22
2023-01-06T14:46:31.844Z,93.93
2023-01-06T14:49:04.431Z,93.64
2023-01-06T14:51:33.125Z,93.71
2023-01-06T14:54:04.425Z,94.17
2023-01-06T14:56:33.316Z,93.04
2023-01-06T14:59:11.093Z,93.13
2023-01-06T15:01:39.740Z,92.09
2023-01-06T15:04:21.962Z,91.14
2023-01-06T15:07:17.019Z,92.23
2023-01-06T15:09:44.697Z,93.34
2023-01-06T15:12:24.483Z,92.73
2023-01-06T15:14:50.934Z,92.54
2023-01-06T15:17:17.596Z,93.08
2023-01-06T15:19:46.721Z,92.43
2023-01-06T15:22:20.317Z,92.14
2023-01-06T15:24:48.205Z,92.57
2023-01-06T15:27:17.065Z,91.75
2023-01-06T15:29:55.108Z,93.39
2023-01-06T15:32:24.823Z,93.46
2023-01-06T15:34:52.818Z,93.87
2023-01-06T15:37:23.429Z,94.66
2023-01-06T15:39:51.418Z,95.10
2023-01-06T15:42:25.430Z,95.34
2023-01-06T15:45:02.645Z,95.07
2023-01-06T15:47:36.098Z,96.17
2023-01-06T15:50:06.775Z,95.69
2023-01-06T15:52:38.673Z,95.47
2023-01-06T15:55:08.219Z,95.55
2023-01-06T15:57:38.978Z,95.29
2023-01-06T16:00:09.344Z,95.61
2023-01-06T16:02:36.338Z,95.22
2023-01-06T16:05:03.150Z,95.52
2023-01-06T16:07:47.957Z,95.01
2023-01-06T16:10:36.363Z,94.80
2023-01-06T16:13:22.266Z,94.91
2023-01-06T16:16:09.709Z,94.20
2023-01-06T16:18:38.126Z,92.90
2023-01-06T16:21:13.714Z,93.29
2023-01-06T16:23:40.442Z,93.62
2023-01-06T16:26:27.701Z,92.93
2023-01-06T16:28:56.754Z,93.23
2023-01-06T16:31:30.965Z,93.90
2023-01-06T16:34:24.286Z,92.93
2023-01-06T16:36:54.409Z,92.98
2023-01-06T16:39:20.834Z,92.75
2023-01-06T16:41:59.506Z,93.09
2023-01-06T16:44:27.087Z,92.24
2023-01-06T16:46:53.542Z,92.07
2023-01-06T16:49:20.877Z,92.95
2023-01-06T16:51:47.581Z,92.38
2023-01-06T16:54:18.622Z,92.47
2023-01-06T16:56:49.942Z,92.49
2023-01-06T16:59:18.213Z,92.67
2023-01-06T17:01:46.799Z,92.90
2023-01-06T17:04:14.807Z,92.97
2023-01-06T17:06:43.829Z,93.83
2023-01-06T17:09:23.202Z,93.09
2023-01-06T17:11:51.319Z,92.92
2023-01-06T17:14:20.207Z,92.92
2023-01-06T17:16:47.475Z,93.50
2023-01-06T17:19:26.608Z,93.08
2023-01-06T17:22:28.335Z,93.17
2023-01-06T17:24:59.359Z,92.18
2023-01-06T17:27:29.965Z,92.19
2023-01-06T17:30:00.963Z,91.89
2023-01-06T17:32:41.064Z,92.79
2023-01-06T17:35:21.575Z,92.20
2023-01-06T17:37:47.993Z,91.59
2023-01-06T17:40:16.955Z,93.01
2023-01-06T17:42:44.293Z,92.31
2023-01-06T17:45:29.172Z,92.16
2023-01-06T17:47:56.470Z,93.30
2023-01-06T17:50:30.869Z,94.30
2023-01-06T17:53:35.885Z,93.77
2023-01-06T17:56:08.633Z,92.01
2023-01-06T17:58:38.488Z,92.55
2023-01-06T18:01:10.070Z,91.15
2023-01-06T18:03:40.906Z,91.11
2023-01-06T18:06:22.007Z,91.01
2023-01-06T18:08:53.423Z,91.17
2023-01-06T18:11:25.660Z,91.85
2023-01-06T18:13:52.640Z,91.15
2023-01-06T18:16:32.100Z,90.51
2023-01-06T18:19:22.083Z,90.92
2023-01-06T18:21:49.767Z,92.33
2023-01-06T18:24:35.995Z,91.29
2023-01-06T18:27:22.359Z,90.27
2023-01-06T18:29:49.845Z,90.04
2023-01-06T18:32:31.448Z,90.56
2023-01-06T18:35:10.575Z,90.15
2023-01-06T18:37:37.092Z,90.45
2023-01-06T18:40:11.663Z,91.08
2023-01-06T18:42:44.376Z,90.65
2023-01-06T18:45:19.160Z,91.23
2023-01-06T18:47:51.703Z,91.42
2023-01-06T18:50:28.641Z,91.50
2023-01-06T18:53:00.719Z,91.29
2023-01-06T18:55:37.676Z,91.29
2023-01-06T18:58:22.932Z,90.63
2023-01-06T19:00:56.858Z,89.75
2023-01-06T19:03:53.504Z,89.51
2023-01-06T19:06:19.966Z,92.13
2023-01-06T19:08:49.542Z,91.89
2023-01-06T19:11:24.338Z,89.81
2023-01-06T19:14:06.658Z,89.79
2023-01-06T19:16:49.410Z,88.61
2023-01-06T19:19:38.112Z,88.23
2023-01-06T19:22:14.418Z,91.07
2023-01-06T19:24:45.437Z,91.16
2023-01-06T19:27:47.791Z,90.22
2023-01-06T19:30:34.935Z,89.46
2023-01-06T19:33:13.741Z,89.03
2023-01-06T19:35:40.310Z,88.83
2023-01-06T19:38:25.485Z,90.03
2023-01-06T19:40:52.738Z,90.10
2023-01-06T19:43:26.789Z,89.02
2023-01-06T19:45:53.718Z,89.44
2023-01-06T19:48:36.283Z,90.30
2023-01-06T19:51:17.653Z,89.70
2023-01-06T19:53:48.085Z,90.21
2023-01-06T19:56:23.222Z,89.16
2023-01-06T19:58:57.355Z,89.83
2023-01-06T20:01:24.226Z,89.57
2023-01-06T20:03:54.144Z,90.09
2023-01-06T20:06:21.703Z,90.48
2023-01-06T20:08:53.624Z,89.69
2023-01-06T20:11:24.527Z,89.39
2023-01-06T20:13:51.036Z,89.29
2023-01-06T20:16:17.691Z,90.87
2023-01-06T20:18:44.197Z,89.53
2023-01-06T20:21:10.602Z,88.82
2023-01-06T20:23:37.034Z,89.71
2023-01-06T20:26:03.485Z,89.44
2023-01-06T20:28:29.909Z,90.19
2023-01-06T20:30:56.392Z,89.34
2023-01-06T20:33:22.812Z,88.46
2023-01-06T20:35:49.891Z,90.17
2023-01-06T20:38:16.383Z,89.43
2023-01-06T20:40:42.830Z,89.16
2023-01-06T20:43:09.376Z,89.03
2023-01-06T20:45:36.152Z,88.47
2023-01-06T20:48:03.344Z,88.37
2023-01-06T20:50:29.953Z,88.17
2023-01-06T20:52:56.537Z,88.74
2023-01-06T20:55:23.265Z,88.63
2023-01-06T20:57:49.971Z,88.82
2023-01-06T21:00:16.949Z,88.70
2023-01-06T21:02:43.440Z,88.09
2023-01-06T21:05:10.330Z,88.97
2023-01-06T21:07:36.852Z,88.71
2023-01-06T21:10:04.594Z,88.53
2023-01-06T21:12:31.110Z,88.35
2023-01-06T21:14:57.513Z,88.20
2023-01-06T21:17:24.110Z,87.74
2023-01-06T21:19:50.764Z,87.21
2023-01-06T21:22:17.259Z,87.51
2023-01-06T21:24:43.634Z,87.72
2023-01-06T21:27:10.155Z,88.18
2023-01-06T21:29:36.561Z,87.94
2023-01-06T21:32:03.268Z,89.25
2023-01-06T21:34:29.662Z,87.81
2023-01-06T21:36:57.564Z,87.16
2023-01-06T21:39:24.158Z,87.52
2023-01-06T21:42:08.904Z,87.89
2023-01-06T21:44:35.476Z,87.05
2023-01-06T21:47:03.717Z,88.98
2023-01-06T21:49:31.163Z,87.78
2023-01-06T21:52:00.521Z,87.49
2023-01-06T21:54:26.950Z,88.22
2023-01-06T21:56:54.050Z,87.28
2023-01-06T21:59:20.884Z,86.75
2023-01-06T22:01:47.901Z,87.46
2023-01-06T22:04:14.580Z,87.06
2023-01-06T22:06:43.745Z,86.68
2023-01-06T22:09:13.882Z,86.26
2023-01-06T22:11:41.542Z,86.87
2023-01-06T22:14:09.921Z,86.72
2023-01-06T22:16:38.493Z,86.85
2023-01-06T22:19:06.112Z,86.33
2023-01-06T22:21:34.117Z,87.07
2023-01-06T22:24:00.969Z,87.14
2023-01-06T22:26:27.444Z,86.34
2023-01-06T22:28:53.833Z,85.99
2023-01-06T22:31:20.252Z,85.93
2023-01-06T22:33:46.707Z,85.86
2023-01-06T22:36:13.144Z,85.73
2023-01-06T22:38:39.627Z,85.69
2023-01-06T22:41:07.037Z,85.63
2023-01-06T22:43:33.843Z,85.75
2023-01-06T22:46:00.441Z,85.61
2023-01-06T22:48:27.312Z,85.72
2023-01-06T22:50:58.462Z,86.05
2023-01-06T22:53:25.946Z,85.71
2023-01-06T22:56:00.275Z,85.18
2023-01-06T22:58:27.499Z,85.33
2023-01-06T23:00:54.092Z,85.28
2023-01-06T23:03:24.469Z,84.95
2023-01-06T23:06:17.627Z,85.42
2023-01-06T23:08:59.217Z,85.28
2023-01-06T23:11:27.936Z,85.08
2023-01-06T23:13:58.329Z,84.94
2023-01-06T23:16:30.021Z,84.77
2023-01-06T23:18:56.747Z,84.86
2023-01-06T23:21:25.475Z,84.76
2023-01-06T23:23:52.784Z,84.71
2023-01-06T23:26:27.348Z,84.68
2023-01-06T23:28:55.270Z,84.51
2023-01-06T23:31:25.255Z,84.90
2023-01-06T23:33:55.872Z,85.52
2023-01-06T23:36:23.787Z,85.12
2023-01-06T23:38:51.037Z,84.84
2023-01-06T23:41:19.751Z,84.91
2023-01-06T23:43:48.161Z,84.84
2023-01-06T23:46:18.803Z,84.28
2023-01-06T23:48:46.024Z,84.06
2023-01-06T23:51:13.256Z,83.85
2023-01-06T23:53:40.559Z,83.66
2023-01-06T23:56:11.531Z,83.55
2023-01-06T23:58:39.925Z,84.35
